sensor_id;sensor_type;location;lat;lon;timestamp;P1;durP1;ratioP1;P2;durP2;ratioP2
9208;SDS011;4639;48.862;9.188;2023-03-12T00:00:30;9.30;;;5.95;;
9208;SDS011;4639;48.862;9.188;2023-03-12T00:02:55;10.02;;;6.45;;
9208;SDS011;4639;48.862;9.188;2023-03-12T00:05:21;10.63;;;6.38;;
9208;SDS011;4639;48.862;9.188;2023-03-12T00:07:49;13.50;;;6.93;;
9208;SDS011;4639;48.862;9.188;2023-03-12T00:10:15;14.25;;;6.70;;
9208;SDS011;4639;48.862;9.188;2023-03-12T00:12:41;12.50;;;6.88;;
9208;SDS011;4639;48.862;9.188;2023-03-12T00:15:07;9.55;;;5.47;;
9208;SDS011;4639;48.862;9.188;2023-03-12T00:17:33;10.63;;;5.65;;
9208;SDS011;4639;48.862;9.188;2023-03-12T00:19:59;12.00;;;5.97;;
9208;SDS011;4639;48.862;9.188;2023-03-12T00:22:24;8.85;;;5.85;;
9208;SDS011;4639;48.862;9.188;2023-03-12T00:24:53;10.15;;;5.82;;
9208;SDS011;4639;48.862;9.188;2023-03-12T00:27:20;10.27;;;5.07;;
9208;SDS011;4639;48.862;9.188;2023-03-12T00:29:47;10.25;;;6.50;;
9208;SDS011;4639;48.862;9.188;2023-03-12T00:32:13;10.57;;;7.32;;
9208;SDS011;4639;48.862;9.188;2023-03-12T00:34:39;13.18;;;7.53;;
9208;SDS011;4639;48.862;9.188;2023-03-12T00:37:05;13.50;;;6.50;;
9208;SDS011;4639;48.862;9.188;2023-03-12T00:39:31;13.55;;;6.60;;
9208;SDS011;4639;48.862;9.188;2023-03-12T00:41:58;14.05;;;6.88;;
9208;SDS011;4639;48.862;9.188;2023-03-12T00:44:24;13.93;;;6.65;;
9208;SDS011;4639;48.862;9.188;2023-03-12T00:46:49;11.32;;;6.35;;
9208;SDS011;4639;48.862;9.188;2023-03-12T00:49:15;12.52;;;6.38;;
9208;SDS011;4639;48.862;9.188;2023-03-12T00:51:41;12.30;;;7.05;;
9208;SDS011;4639;48.862;9.188;2023-03-12T00:54:06;14.32;;;7.53;;
9208;SDS011;4639;48.862;9.188;2023-03-12T00:56:32;11.65;;;7.20;;
9208;SDS011;4639;48.862;9.188;2023-03-12T00:58:57;12.88;;;6.80;;
9208;SDS011;4639;48.862;9.188;2023-03-12T01:01:23;9.93;;;6.85;;
9208;SDS011;4639;48.862;9.188;2023-03-12T01:03:49;11.40;;;6.13;;
9208;SDS011;4639;48.862;9.188;2023-03-12T01:06:18;13.18;;;7.00;;
9208;SDS011;4639;48.862;9.188;2023-03-12T01:08:44;10.25;;;6.65;;
9208;SDS011;4639;48.862;9.188;2023-03-12T01:11:14;12.38;;;6.60;;
9208;SDS011;4639;48.862;9.188;2023-03-12T01:13:41;12.40;;;7.27;;
9208;SDS011;4639;48.862;9.188;2023-03-12T01:16:07;10.02;;;6.40;;
9208;SDS011;4639;48.862;9.188;2023-03-12T01:18:33;11.90;;;6.90;;
9208;SDS011;4639;48.862;9.188;2023-03-12T01:20:59;9.70;;;6.37;;
9208;SDS011;4639;48.862;9.188;2023-03-12T01:23:24;14.82;;;7.38;;
9208;SDS011;4639;48.862;9.188;2023-03-12T01:25:50;12.90;;;6.57;;
9208;SDS011;4639;48.862;9.188;2023-03-12T01:28:19;17.23;;;7.43;;
9208;SDS011;4639;48.862;9.188;2023-03-12T01:30:48;10.30;;;6.80;;
9208;SDS011;4639;48.862;9.188;2023-03-12T01:33:14;14.47;;;7.40;;
9208;SDS011;4639;48.862;9.188;2023-03-12T01:35:40;12.43;;;7.20;;
9208;SDS011;4639;48.862;9.188;2023-03-12T01:38:07;13.32;;;7.13;;
9208;SDS011;4639;48.862;9.188;2023-03-12T01:40:37;11.13;;;6.83;;
9208;SDS011;4639;48.862;9.188;2023-03-12T01:43:23;13.02;;;7.43;;
9208;SDS011;4639;48.862;9.188;2023-03-12T01:46:08;10.20;;;6.93;;
9208;SDS011;4639;48.862;9.188;2023-03-12T01:49:02;9.55;;;6.35;;
9208;SDS011;4639;48.862;9.188;2023-03-12T01:51:41;15.70;;;7.13;;
9208;SDS011;4639;48.862;9.188;2023-03-12T01:54:21;11.80;;;6.33;;
9208;SDS011;4639;48.862;9.188;2023-03-12T01:56:51;12.47;;;6.60;;
9208;SDS011;4639;48.862;9.188;2023-03-12T01:59:25;12.70;;;6.53;;
9208;SDS011;4639;48.862;9.188;2023-03-12T02:01:56;11.50;;;6.67;;
9208;SDS011;4639;48.862;9.188;2023-03-12T02:04:23;9.77;;;6.50;;
9208;SDS011;4639;48.862;9.188;2023-03-12T02:07:04;13.25;;;6.97;;
9208;SDS011;4639;48.862;9.188;2023-03-12T02:09:32;10.63;;;6.47;;
9208;SDS011;4639;48.862;9.188;2023-03-12T02:12:00;14.43;;;7.00;;
9208;SDS011;4639;48.862;9.188;2023-03-12T02:14:26;11.53;;;6.40;;
9208;SDS011;4639;48.862;9.188;2023-03-12T02:16:53;9.55;;;5.90;;
9208;SDS011;4639;48.862;9.188;2023-03-12T02:19:22;9.85;;;5.35;;
9208;SDS011;4639;48.862;9.188;2023-03-12T02:22:09;14.10;;;7.05;;
9208;SDS011;4639;48.862;9.188;2023-03-12T02:24:47;12.07;;;5.80;;
9208;SDS011;4639;48.862;9.188;2023-03-12T02:27:27;8.73;;;5.65;;
9208;SDS011;4639;48.862;9.188;2023-03-12T02:29:56;13.20;;;6.32;;
9208;SDS011;4639;48.862;9.188;2023-03-12T02:32:23;9.60;;;6.18;;
9208;SDS011;4639;48.862;9.188;2023-03-12T02:34:52;11.57;;;5.53;;
9208;SDS011;4639;48.862;9.188;2023-03-12T02:37:18;10.85;;;6.43;;
9208;SDS011;4639;48.862;9.188;2023-03-12T02:39:45;13.07;;;6.75;;
9208;SDS011;4639;48.862;9.188;2023-03-12T02:42:17;10.48;;;5.47;;
9208;SDS011;4639;48.862;9.188;2023-03-12T02:44:44;12.85;;;6.60;;
9208;SDS011;4639;48.862;9.188;2023-03-12T02:47:10;14.40;;;6.90;;
9208;SDS011;4639;48.862;9.188;2023-03-12T02:49:35;9.35;;;6.32;;
9208;SDS011;4639;48.862;9.188;2023-03-12T02:52:01;9.43;;;5.85;;
9208;SDS011;4639;48.862;9.188;2023-03-12T02:54:27;11.75;;;6.50;;
9208;SDS011;4639;48.862;9.188;2023-03-12T02:56:53;10.95;;;6.75;;
9208;SDS011;4639;48.862;9.188;2023-03-12T02:59:19;9.38;;;6.78;;
9208;SDS011;4639;48.862;9.188;2023-03-12T03:01:45;9.27;;;6.85;;
9208;SDS011;4639;48.862;9.188;2023-03-12T03:04:11;12.20;;;6.55;;
9208;SDS011;4639;48.862;9.188;2023-03-12T03:06:41;12.75;;;7.00;;
9208;SDS011;4639;48.862;9.188;2023-03-12T03:09:07;13.15;;;5.97;;
9208;SDS011;4639;48.862;9.188;2023-03-12T03:11:33;10.57;;;5.88;;
9208;SDS011;4639;48.862;9.188;2023-03-12T03:13:58;11.27;;;6.30;;
9208;SDS011;4639;48.862;9.188;2023-03-12T03:16:24;11.00;;;6.30;;
9208;SDS011;4639;48.862;9.188;2023-03-12T03:18:50;9.37;;;6.13;;
9208;SDS011;4639;48.862;9.188;2023-03-12T03:21:16;15.53;;;6.50;;
9208;SDS011;4639;48.862;9.188;2023-03-12T03:23:42;10.87;;;6.27;;
9208;SDS011;4639;48.862;9.188;2023-03-12T03:26:10;9.80;;;6.38;;
9208;SDS011;4639;48.862;9.188;2023-03-12T03:28:35;12.32;;;6.22;;
9208;SDS011;4639;48.862;9.188;2023-03-12T03:31:01;13.23;;;6.40;;
9208;SDS011;4639;48.862;9.188;2023-03-12T03:33:28;10.27;;;6.07;;
9208;SDS011;4639;48.862;9.188;2023-03-12T03:35:56;14.65;;;7.13;;
9208;SDS011;4639;48.862;9.188;2023-03-12T03:38:23;13.10;;;7.20;;
9208;SDS011;4639;48.862;9.188;2023-03-12T03:40:53;11.27;;;6.78;;
9208;SDS011;4639;48.862;9.188;2023-03-12T03:43:19;8.68;;;6.25;;
9208;SDS011;4639;48.862;9.188;2023-03-12T03:45:45;10.35;;;6.88;;
9208;SDS011;4639;48.862;9.188;2023-03-12T03:48:11;15.75;;;7.28;;
9208;SDS011;4639;48.862;9.188;2023-03-12T03:50:38;13.50;;;6.97;;
9208;SDS011;4639;48.862;9.188;2023-03-12T03:53:04;11.52;;;6.80;;
9208;SDS011;4639;48.862;9.188;2023-03-12T03:55:33;13.02;;;6.78;;
9208;SDS011;4639;48.862;9.188;2023-03-12T03:58:00;10.57;;;6.95;;
9208;SDS011;4639;48.862;9.188;2023-03-12T04:00:26;11.40;;;7.13;;
9208;SDS011;4639;48.862;9.188;2023-03-12T04:02:51;10.60;;;6.60;;
9208;SDS011;4639;48.862;9.188;2023-03-12T04:05:17;12.68;;;7.22;;
9208;SDS011;4639;48.862;9.188;2023-03-12T04:07:44;15.77;;;7.75;;
9208;SDS011;4639;48.862;9.188;2023-03-12T04:10:10;12.88;;;6.93;;
9208;SDS011;4639;48.862;9.188;2023-03-12T04:12:36;10.38;;;6.18;;
9208;SDS011;4639;48.862;9.188;2023-03-12T04:15:02;11.73;;;6.80;;
9208;SDS011;4639;48.862;9.188;2023-03-12T04:17:28;8.50;;;6.22;;
9208;SDS011;4639;48.862;9.188;2023-03-12T04:19:53;11.60;;;6.63;;
9208;SDS011;4639;48.862;9.188;2023-03-12T04:22:19;11.77;;;6.55;;
9208;SDS011;4639;48.862;9.188;2023-03-12T04:24:44;13.98;;;7.25;;
9208;SDS011;4639;48.862;9.188;2023-03-12T04:27:10;8.38;;;6.57;;
9208;SDS011;4639;48.862;9.188;2023-03-12T04:29:35;11.70;;;6.75;;
9208;SDS011;4639;48.862;9.188;2023-03-12T04:32:03;10.43;;;5.90;;
9208;SDS011;4639;48.862;9.188;2023-03-12T04:34:29;11.20;;;6.68;;
9208;SDS011;4639;48.862;9.188;2023-03-12T04:36:55;13.23;;;6.50;;
9208;SDS011;4639;48.862;9.188;2023-03-12T04:39:20;10.20;;;6.43;;
9208;SDS011;4639;48.862;9.188;2023-03-12T04:41:46;11.10;;;6.57;;
9208;SDS011;4639;48.862;9.188;2023-03-12T04:44:12;11.70;;;6.78;;
9208;SDS011;4639;48.862;9.188;2023-03-12T04:46:38;9.57;;;6.13;;
9208;SDS011;4639;48.862;9.188;2023-03-12T04:49:03;8.55;;;6.15;;
9208;SDS011;4639;48.862;9.188;2023-03-12T04:51:29;9.35;;;5.53;;
9208;SDS011;4639;48.862;9.188;2023-03-12T04:53:56;12.43;;;6.00;;
9208;SDS011;4639;48.862;9.188;2023-03-12T04:56:22;8.95;;;6.35;;
9208;SDS011;4639;48.862;9.188;2023-03-12T04:58:47;13.93;;;6.47;;
9208;SDS011;4639;48.862;9.188;2023-03-12T05:01:18;10.52;;;6.03;;
9208;SDS011;4639;48.862;9.188;2023-03-12T05:03:51;9.07;;;5.88;;
9208;SDS011;4639;48.862;9.188;2023-03-12T05:06:17;8.43;;;5.63;;
9208;SDS011;4639;48.862;9.188;2023-03-12T05:08:44;15.60;;;6.35;;
9208;SDS011;4639;48.862;9.188;2023-03-12T05:11:10;9.30;;;6.63;;
9208;SDS011;4639;48.862;9.188;2023-03-12T05:13:36;13.60;;;5.53;;
9208;SDS011;4639;48.862;9.188;2023-03-12T05:16:02;8.25;;;5.90;;
9208;SDS011;4639;48.862;9.188;2023-03-12T05:18:27;9.77;;;5.97;;
9208;SDS011;4639;48.862;9.188;2023-03-12T05:21:00;11.25;;;5.93;;
9208;SDS011;4639;48.862;9.188;2023-03-12T05:23:27;10.60;;;6.45;;
9208;SDS011;4639;48.862;9.188;2023-03-12T05:25:53;10.82;;;5.93;;
9208;SDS011;4639;48.862;9.188;2023-03-12T05:28:18;10.48;;;6.15;;
9208;SDS011;4639;48.862;9.188;2023-03-12T05:30:44;11.10;;;5.90;;
9208;SDS011;4639;48.862;9.188;2023-03-12T05:33:10;10.57;;;5.82;;
9208;SDS011;4639;48.862;9.188;2023-03-12T05:35:36;11.43;;;5.90;;
9208;SDS011;4639;48.862;9.188;2023-03-12T05:38:02;11.25;;;5.70;;
9208;SDS011;4639;48.862;9.188;2023-03-12T05:40:27;8.18;;;6.13;;
9208;SDS011;4639;48.862;9.188;2023-03-12T05:42:53;8.77;;;5.68;;
9208;SDS011;4639;48.862;9.188;2023-03-12T05:45:18;10.25;;;5.60;;
9208;SDS011;4639;48.862;9.188;2023-03-12T05:47:44;9.85;;;5.72;;
9208;SDS011;4639;48.862;9.188;2023-03-12T05:50:10;8.68;;;5.60;;
9208;SDS011;4639;48.862;9.188;2023-03-12T05:52:36;10.75;;;5.63;;
9208;SDS011;4639;48.862;9.188;2023-03-12T05:55:01;14.57;;;6.10;;
9208;SDS011;4639;48.862;9.188;2023-03-12T05:57:28;8.93;;;5.15;;
9208;SDS011;4639;48.862;9.188;2023-03-12T05:59:53;6.65;;;4.85;;
9208;SDS011;4639;48.862;9.188;2023-03-12T06:02:19;9.43;;;5.55;;
9208;SDS011;4639;48.862;9.188;2023-03-12T06:04:45;8.82;;;5.35;;
9208;SDS011;4639;48.862;9.188;2023-03-12T06:07:11;14.50;;;6.20;;
9208;SDS011;4639;48.862;9.188;2023-03-12T06:09:36;8.63;;;5.18;;
9208;SDS011;4639;48.862;9.188;2023-03-12T06:12:02;12.00;;;5.68;;
9208;SDS011;4639;48.862;9.188;2023-03-12T06:14:27;7.80;;;5.43;;
9208;SDS011;4639;48.862;9.188;2023-03-12T06:16:53;6.00;;;4.60;;
9208;SDS011;4639;48.862;9.188;2023-03-12T06:19:19;7.28;;;5.18;;
9208;SDS011;4639;48.862;9.188;2023-03-12T06:21:45;8.23;;;5.63;;
9208;SDS011;4639;48.862;9.188;2023-03-12T06:24:10;7.60;;;5.30;;
9208;SDS011;4639;48.862;9.188;2023-03-12T06:26:36;7.75;;;5.18;;
9208;SDS011;4639;48.862;9.188;2023-03-12T06:29:01;10.30;;;5.40;;
9208;SDS011;4639;48.862;9.188;2023-03-12T06:31:27;7.78;;;5.65;;
9208;SDS011;4639;48.862;9.188;2023-03-12T06:33:52;6.72;;;5.18;;
9208;SDS011;4639;48.862;9.188;2023-03-12T06:36:18;8.73;;;5.70;;
9208;SDS011;4639;48.862;9.188;2023-03-12T06:38:44;13.68;;;5.82;;
9208;SDS011;4639;48.862;9.188;2023-03-12T06:41:12;14.38;;;8.80;;
9208;SDS011;4639;48.862;9.188;2023-03-12T06:43:40;14.45;;;7.65;;
9208;SDS011;4639;48.862;9.188;2023-03-12T06:46:07;8.45;;;5.53;;
9208;SDS011;4639;48.862;9.188;2023-03-12T06:48:36;13.18;;;6.68;;
9208;SDS011;4639;48.862;9.188;2023-03-12T06:51:05;9.00;;;5.53;;
9208;SDS011;4639;48.862;9.188;2023-03-12T06:53:31;9.48;;;6.32;;
9208;SDS011;4639;48.862;9.188;2023-03-12T06:55:57;12.32;;;5.70;;
9208;SDS011;4639;48.862;9.188;2023-03-12T06:58:23;10.20;;;5.82;;
9208;SDS011;4639;48.862;9.188;2023-03-12T07:00:49;10.63;;;7.10;;
9208;SDS011;4639;48.862;9.188;2023-03-12T07:03:15;11.07;;;7.10;;
9208;SDS011;4639;48.862;9.188;2023-03-12T07:05:45;10.88;;;5.95;;
9208;SDS011;4639;48.862;9.188;2023-03-12T07:08:12;8.93;;;5.60;;
9208;SDS011;4639;48.862;9.188;2023-03-12T07:10:37;12.38;;;7.07;;
9208;SDS011;4639;48.862;9.188;2023-03-12T07:13:03;10.52;;;7.05;;
9208;SDS011;4639;48.862;9.188;2023-03-12T07:15:29;11.75;;;6.47;;
9208;SDS011;4639;48.862;9.188;2023-03-12T07:17:54;13.05;;;7.72;;
9208;SDS011;4639;48.862;9.188;2023-03-12T07:20:23;10.98;;;6.97;;
9208;SDS011;4639;48.862;9.188;2023-03-12T07:22:48;13.75;;;7.65;;
9208;SDS011;4639;48.862;9.188;2023-03-12T07:25:14;12.27;;;8.13;;
9208;SDS011;4639;48.862;9.188;2023-03-12T07:27:40;16.63;;;7.60;;
9208;SDS011;4639;48.862;9.188;2023-03-12T07:30:05;15.70;;;7.82;;
9208;SDS011;4639;48.862;9.188;2023-03-12T07:32:31;14.52;;;7.88;;
9208;SDS011;4639;48.862;9.188;2023-03-12T07:34:57;12.57;;;7.97;;
9208;SDS011;4639;48.862;9.188;2023-03-12T07:37:23;13.57;;;7.47;;
9208;SDS011;4639;48.862;9.188;2023-03-12T07:39:48;9.75;;;7.40;;
9208;SDS011;4639;48.862;9.188;2023-03-12T07:42:16;10.52;;;7.63;;
9208;SDS011;4639;48.862;9.188;2023-03-12T07:44:42;18.92;;;7.50;;
9208;SDS011;4639;48.862;9.188;2023-03-12T07:47:07;10.23;;;6.90;;
9208;SDS011;4639;48.862;9.188;2023-03-12T07:49:33;8.35;;;7.30;;
9208;SDS011;4639;48.862;9.188;2023-03-12T07:51:59;13.57;;;7.65;;
9208;SDS011;4639;48.862;9.188;2023-03-12T07:54:24;11.90;;;6.93;;
9208;SDS011;4639;48.862;9.188;2023-03-12T07:56:54;9.98;;;7.05;;
9208;SDS011;4639;48.862;9.188;2023-03-12T07:59:20;10.98;;;6.60;;
9208;SDS011;4639;48.862;9.188;2023-03-12T08:01:47;15.05;;;7.72;;
9208;SDS011;4639;48.862;9.188;2023-03-12T08:04:13;11.63;;;7.22;;
9208;SDS011;4639;48.862;9.188;2023-03-12T08:06:39;10.95;;;7.18;;
9208;SDS011;4639;48.862;9.188;2023-03-12T08:09:06;11.82;;;7.55;;
9208;SDS011;4639;48.862;9.188;2023-03-12T08:11:32;10.27;;;7.18;;
9208;SDS011;4639;48.862;9.188;2023-03-12T08:13:58;9.65;;;6.72;;
9208;SDS011;4639;48.862;9.188;2023-03-12T08:16:24;11.93;;;6.45;;
9208;SDS011;4639;48.862;9.188;2023-03-12T08:18:49;10.32;;;6.57;;
9208;SDS011;4639;48.862;9.188;2023-03-12T08:21:15;10.63;;;6.72;;
9208;SDS011;4639;48.862;9.188;2023-03-12T08:23:41;10.60;;;6.63;;
9208;SDS011;4639;48.862;9.188;2023-03-12T08:26:06;10.93;;;5.88;;
9208;SDS011;4639;48.862;9.188;2023-03-12T08:28:32;10.98;;;7.10;;
9208;SDS011;4639;48.862;9.188;2023-03-12T08:30:58;12.02;;;6.32;;
9208;SDS011;4639;48.862;9.188;2023-03-12T08:33:24;11.18;;;7.90;;
9208;SDS011;4639;48.862;9.188;2023-03-12T08:35:50;10.88;;;7.32;;
9208;SDS011;4639;48.862;9.188;2023-03-12T08:38:16;10.68;;;7.28;;
9208;SDS011;4639;48.862;9.188;2023-03-12T08:40:42;10.38;;;7.32;;
9208;SDS011;4639;48.862;9.188;2023-03-12T08:43:08;11.27;;;7.25;;
9208;SDS011;4639;48.862;9.188;2023-03-12T08:45:34;9.32;;;6.85;;
9208;SDS011;4639;48.862;9.188;2023-03-12T08:48:00;10.65;;;6.78;;
9208;SDS011;4639;48.862;9.188;2023-03-12T08:50:27;10.27;;;8.38;;
9208;SDS011;4639;48.862;9.188;2023-03-12T08:52:55;10.63;;;7.70;;
9208;SDS011;4639;48.862;9.188;2023-03-12T08:55:21;9.80;;;8.18;;
9208;SDS011;4639;48.862;9.188;2023-03-12T08:57:46;12.73;;;7.50;;
9208;SDS011;4639;48.862;9.188;2023-03-12T09:00:12;10.80;;;8.07;;
9208;SDS011;4639;48.862;9.188;2023-03-12T09:02:40;17.25;;;7.80;;
9208;SDS011;4639;48.862;9.188;2023-03-12T09:05:07;13.45;;;7.85;;
9208;SDS011;4639;48.862;9.188;2023-03-12T09:07:33;9.80;;;7.47;;
9208;SDS011;4639;48.862;9.188;2023-03-12T09:09:59;10.00;;;7.82;;
9208;SDS011;4639;48.862;9.188;2023-03-12T09:12:24;12.82;;;8.02;;
9208;SDS011;4639;48.862;9.188;2023-03-12T09:14:50;9.88;;;7.85;;
9208;SDS011;4639;48.862;9.188;2023-03-12T09:17:16;14.45;;;8.13;;
9208;SDS011;4639;48.862;9.188;2023-03-12T09:19:42;10.23;;;7.88;;
9208;SDS011;4639;48.862;9.188;2023-03-12T09:22:08;12.07;;;8.05;;
9208;SDS011;4639;48.862;9.188;2023-03-12T09:24:34;9.70;;;7.65;;
9208;SDS011;4639;48.862;9.188;2023-03-12T09:27:00;8.88;;;7.22;;
9208;SDS011;4639;48.862;9.188;2023-03-12T09:29:28;11.95;;;7.30;;
9208;SDS011;4639;48.862;9.188;2023-03-12T09:31:54;9.45;;;7.28;;
9208;SDS011;4639;48.862;9.188;2023-03-12T09:34:19;10.38;;;7.85;;
9208;SDS011;4639;48.862;9.188;2023-03-12T09:36:45;10.40;;;7.55;;
9208;SDS011;4639;48.862;9.188;2023-03-12T09:39:10;9.80;;;7.35;;
9208;SDS011;4639;48.862;9.188;2023-03-12T09:41:40;11.07;;;8.50;;
9208;SDS011;4639;48.862;9.188;2023-03-12T09:46:53;12.05;;;8.10;;
9208;SDS011;4639;48.862;9.188;2023-03-12T09:49:33;13.75;;;8.15;;
9208;SDS011;4639;48.862;9.188;2023-03-12T09:57:39;10.70;;;8.57;;
9208;SDS011;4639;48.862;9.188;2023-03-12T10:00:06;9.27;;;8.15;;
9208;SDS011;4639;48.862;9.188;2023-03-12T10:02:50;13.43;;;8.50;;
9208;SDS011;4639;48.862;9.188;2023-03-12T10:05:45;12.23;;;8.82;;
9208;SDS011;4639;48.862;9.188;2023-03-12T10:08:29;12.50;;;8.13;;
9208;SDS011;4639;48.862;9.188;2023-03-12T10:14:31;13.13;;;8.45;;
9208;SDS011;4639;48.862;9.188;2023-03-12T10:17:24;12.57;;;8.77;;
9208;SDS011;4639;48.862;9.188;2023-03-12T10:22:52;10.95;;;8.38;;
9208;SDS011;4639;48.862;9.188;2023-03-12T10:28:10;11.07;;;7.85;;
9208;SDS011;4639;48.862;9.188;2023-03-12T10:30:47;13.50;;;8.82;;
9208;SDS011;4639;48.862;9.188;2023-03-12T10:33:17;11.93;;;9.52;;
9208;SDS011;4639;48.862;9.188;2023-03-12T10:35:44;11.40;;;8.18;;
9208;SDS011;4639;48.862;9.188;2023-03-12T10:38:12;11.88;;;8.18;;
9208;SDS011;4639;48.862;9.188;2023-03-12T10:40:41;10.93;;;8.00;;
9208;SDS011;4639;48.862;9.188;2023-03-12T10:43:07;9.55;;;8.07;;
9208;SDS011;4639;48.862;9.188;2023-03-12T10:48:25;11.80;;;7.88;;
9208;SDS011;4639;48.862;9.188;2023-03-12T10:51:01;11.10;;;8.27;;
9208;SDS011;4639;48.862;9.188;2023-03-12T10:53:32;10.98;;;8.07;;
9208;SDS011;4639;48.862;9.188;2023-03-12T10:56:04;9.88;;;7.10;;
9208;SDS011;4639;48.862;9.188;2023-03-12T10:58:53;9.68;;;7.90;;
9208;SDS011;4639;48.862;9.188;2023-03-12T11:01:21;11.65;;;8.75;;
9208;SDS011;4639;48.862;9.188;2023-03-12T11:03:49;11.05;;;8.32;;
9208;SDS011;4639;48.862;9.188;2023-03-12T11:06:23;10.98;;;8.80;;
9208;SDS011;4639;48.862;9.188;2023-03-12T11:09:02;10.25;;;9.05;;
9208;SDS011;4639;48.862;9.188;2023-03-12T11:11:41;12.40;;;8.60;;
9208;SDS011;4639;48.862;9.188;2023-03-12T11:14:15;11.73;;;8.25;;
9208;SDS011;4639;48.862;9.188;2023-03-12T11:16:47;9.65;;;7.15;;
9208;SDS011;4639;48.862;9.188;2023-03-12T11:19:14;3.95;;;3.22;;
9208;SDS011;4639;48.862;9.188;2023-03-12T11:21:56;4.93;;;2.90;;
9208;SDS011;4639;48.862;9.188;2023-03-12T11:24:27;4.55;;;2.80;;
9208;SDS011;4639;48.862;9.188;2023-03-12T11:26:55;4.22;;;2.17;;
9208;SDS011;4639;48.862;9.188;2023-03-12T11:29:30;2.53;;;2.25;;
9208;SDS011;4639;48.862;9.188;2023-03-12T11:34:43;2.85;;;1.85;;
9208;SDS011;4639;48.862;9.188;2023-03-12T11:40:03;6.00;;;2.13;;
9208;SDS011;4639;48.862;9.188;2023-03-12T11:56:58;3.42;;;1.30;;
9208;SDS011;4639;48.862;9.188;2023-03-12T12:02:35;4.43;;;2.10;;
9208;SDS011;4639;48.862;9.188;2023-03-12T12:21:04;4.10;;;1.40;;
9208;SDS011;4639;48.862;9.188;2023-03-12T12:23:58;4.28;;;1.95;;
9208;SDS011;4639;48.862;9.188;2023-03-12T12:32:31;3.47;;;1.85;;
9208;SDS011;4639;48.862;9.188;2023-03-12T12:35:07;6.50;;;1.70;;
9208;SDS011;4639;48.862;9.188;2023-03-12T12:40:30;3.97;;;1.60;;
9208;SDS011;4639;48.862;9.188;2023-03-12T12:45:46;3.22;;;1.90;;
9208;SDS011;4639;48.862;9.188;2023-03-12T12:48:15;6.03;;;2.08;;
9208;SDS011;4639;48.862;9.188;2023-03-12T12:50:44;5.05;;;1.98;;
9208;SDS011;4639;48.862;9.188;2023-03-12T12:53:22;5.03;;;1.90;;
9208;SDS011;4639;48.862;9.188;2023-03-12T12:56:01;4.35;;;1.88;;
9208;SDS011;4639;48.862;9.188;2023-03-12T13:01:13;5.30;;;1.88;;
9208;SDS011;4639;48.862;9.188;2023-03-12T13:03:41;6.13;;;2.05;;
9208;SDS011;4639;48.862;9.188;2023-03-12T13:06:07;3.10;;;1.60;;
9208;SDS011;4639;48.862;9.188;2023-03-12T13:11:25;8.25;;;2.35;;
9208;SDS011;4639;48.862;9.188;2023-03-12T13:16:30;6.32;;;1.90;;
9208;SDS011;4639;48.862;9.188;2023-03-12T13:24:10;7.45;;;2.00;;
9208;SDS011;4639;48.862;9.188;2023-03-12T13:26:50;8.73;;;2.58;;
9208;SDS011;4639;48.862;9.188;2023-03-12T13:31:46;7.45;;;2.55;;
9208;SDS011;4639;48.862;9.188;2023-03-12T13:36:44;4.25;;;1.80;;
9208;SDS011;4639;48.862;9.188;2023-03-12T13:39:18;5.97;;;2.47;;
9208;SDS011;4639;48.862;9.188;2023-03-12T13:41:58;5.63;;;1.90;;
9208;SDS011;4639;48.862;9.188;2023-03-12T13:52:01;7.95;;;3.08;;
9208;SDS011;4639;48.862;9.188;2023-03-12T13:54:42;13.32;;;6.00;;
9208;SDS011;4639;48.862;9.188;2023-03-12T13:57:12;5.32;;;1.88;;
9208;SDS011;4639;48.862;9.188;2023-03-12T13:59:45;7.18;;;3.00;;
9208;SDS011;4639;48.862;9.188;2023-03-12T14:02:24;8.45;;;2.45;;
9208;SDS011;4639;48.862;9.188;2023-03-12T14:04:53;6.28;;;2.30;;
9208;SDS011;4639;48.862;9.188;2023-03-12T14:12:59;6.03;;;2.33;;
9208;SDS011;4639;48.862;9.188;2023-03-12T14:15:54;7.38;;;2.40;;
9208;SDS011;4639;48.862;9.188;2023-03-12T14:18:24;7.55;;;2.53;;
9208;SDS011;4639;48.862;9.188;2023-03-12T14:20:57;8.05;;;2.60;;
9208;SDS011;4639;48.862;9.188;2023-03-12T14:23:26;9.48;;;2.63;;
9208;SDS011;4639;48.862;9.188;2023-03-12T14:25:58;7.00;;;2.50;;
9208;SDS011;4639;48.862;9.188;2023-03-12T14:28:25;8.35;;;3.05;;
9208;SDS011;4639;48.862;9.188;2023-03-12T14:30:56;8.80;;;2.92;;
9208;SDS011;4639;48.862;9.188;2023-03-12T14:33:30;7.72;;;2.83;;
9208;SDS011;4639;48.862;9.188;2023-03-12T14:36:02;9.30;;;2.90;;
9208;SDS011;4639;48.862;9.188;2023-03-12T14:38:33;6.13;;;2.40;;
9208;SDS011;4639;48.862;9.188;2023-03-12T14:41:24;6.75;;;2.28;;
9208;SDS011;4639;48.862;9.188;2023-03-12T14:43:56;9.23;;;2.65;;
9208;SDS011;4639;48.862;9.188;2023-03-12T14:46:29;8.80;;;2.35;;
9208;SDS011;4639;48.862;9.188;2023-03-12T14:48:55;5.63;;;2.22;;
9208;SDS011;4639;48.862;9.188;2023-03-12T14:51:21;6.22;;;2.00;;
9208;SDS011;4639;48.862;9.188;2023-03-12T14:53:47;6.28;;;2.25;;
9208;SDS011;4639;48.862;9.188;2023-03-12T14:56:15;5.57;;;1.92;;
9208;SDS011;4639;48.862;9.188;2023-03-12T14:58:55;5.10;;;2.17;;
9208;SDS011;4639;48.862;9.188;2023-03-12T15:01:23;4.95;;;1.70;;
9208;SDS011;4639;48.862;9.188;2023-03-12T15:04:04;7.93;;;2.60;;
9208;SDS011;4639;48.862;9.188;2023-03-12T15:06:36;5.25;;;2.17;;
9208;SDS011;4639;48.862;9.188;2023-03-12T15:09:07;5.95;;;2.42;;
9208;SDS011;4639;48.862;9.188;2023-03-12T15:11:41;4.78;;;1.83;;
9208;SDS011;4639;48.862;9.188;2023-03-12T15:14:12;5.93;;;2.00;;
9208;SDS011;4639;48.862;9.188;2023-03-12T15:16:40;7.18;;;2.22;;
9208;SDS011;4639;48.862;9.188;2023-03-12T15:19:10;8.65;;;2.15;;
9208;SDS011;4639;48.862;9.188;2023-03-12T15:21:38;6.78;;;1.67;;
9208;SDS011;4639;48.862;9.188;2023-03-12T15:24:04;6.00;;;2.95;;
9208;SDS011;4639;48.862;9.188;2023-03-12T15:26:31;6.75;;;1.85;;
9208;SDS011;4639;48.862;9.188;2023-03-12T15:29:13;5.13;;;1.92;;
9208;SDS011;4639;48.862;9.188;2023-03-12T15:31:51;4.07;;;1.80;;
9208;SDS011;4639;48.862;9.188;2023-03-12T15:34:32;7.93;;;2.50;;
9208;SDS011;4639;48.862;9.188;2023-03-12T15:37:00;4.90;;;1.75;;
9208;SDS011;4639;48.862;9.188;2023-03-12T15:39:29;7.22;;;2.22;;
9208;SDS011;4639;48.862;9.188;2023-03-12T15:42:01;6.70;;;2.03;;
9208;SDS011;4639;48.862;9.188;2023-03-12T15:44:49;7.35;;;2.00;;
9208;SDS011;4639;48.862;9.188;2023-03-12T15:47:21;6.13;;;2.15;;
9208;SDS011;4639;48.862;9.188;2023-03-12T15:49:53;6.15;;;2.30;;
9208;SDS011;4639;48.862;9.188;2023-03-12T15:52:29;5.43;;;1.90;;
9208;SDS011;4639;48.862;9.188;2023-03-12T15:54:59;7.65;;;1.80;;
9208;SDS011;4639;48.862;9.188;2023-03-12T15:57:29;5.22;;;1.92;;
9208;SDS011;4639;48.862;9.188;2023-03-12T16:02:52;6.15;;;2.13;;
9208;SDS011;4639;48.862;9.188;2023-03-12T16:05:28;7.85;;;2.30;;
9208;SDS011;4639;48.862;9.188;2023-03-12T16:08:17;5.75;;;2.00;;
9208;SDS011;4639;48.862;9.188;2023-03-12T16:10:44;6.32;;;2.35;;
9208;SDS011;4639;48.862;9.188;2023-03-12T16:13:12;8.13;;;2.28;;
9208;SDS011;4639;48.862;9.188;2023-03-12T16:15:39;6.97;;;2.05;;
9208;SDS011;4639;48.862;9.188;2023-03-12T16:18:10;6.45;;;2.10;;
9208;SDS011;4639;48.862;9.188;2023-03-12T16:20:37;9.00;;;4.97;;
9208;SDS011;4639;48.862;9.188;2023-03-12T16:23:03;7.60;;;2.53;;
9208;SDS011;4639;48.862;9.188;2023-03-12T16:25:29;5.10;;;2.67;;
9208;SDS011;4639;48.862;9.188;2023-03-12T16:27:55;8.88;;;2.60;;
9208;SDS011;4639;48.862;9.188;2023-03-12T16:30:32;9.10;;;2.42;;
9208;SDS011;4639;48.862;9.188;2023-03-12T16:33:00;7.70;;;2.38;;
9208;SDS011;4639;48.862;9.188;2023-03-12T16:35:27;8.20;;;3.17;;
9208;SDS011;4639;48.862;9.188;2023-03-12T16:37:55;6.78;;;2.85;;
9208;SDS011;4639;48.862;9.188;2023-03-12T16:40:20;6.15;;;2.40;;
9208;SDS011;4639;48.862;9.188;2023-03-12T16:42:47;8.77;;;2.22;;
9208;SDS011;4639;48.862;9.188;2023-03-12T16:45:15;9.55;;;3.03;;
9208;SDS011;4639;48.862;9.188;2023-03-12T16:47:42;10.63;;;3.03;;
9208;SDS011;4639;48.862;9.188;2023-03-12T16:50:15;10.13;;;2.80;;
9208;SDS011;4639;48.862;9.188;2023-03-12T16:52:43;8.85;;;2.60;;
9208;SDS011;4639;48.862;9.188;2023-03-12T16:55:11;9.75;;;3.03;;
9208;SDS011;4639;48.862;9.188;2023-03-12T16:57:39;8.77;;;2.80;;
9208;SDS011;4639;48.862;9.188;2023-03-12T17:00:14;10.50;;;3.50;;
9208;SDS011;4639;48.862;9.188;2023-03-12T17:02:43;9.05;;;3.08;;